createdAt,value
2023-05-19T00:00:28.591Z,74.49
2023-05-19T00:01:39.044Z,73.78
2023-05-19T00:02:28.794Z,73.06
2023-05-19T00:03:28.780Z,72.96
2023-05-19T00:05:55.372Z,73.98
2023-05-19T00:06:56.025Z,74.40
2023-05-19T00:09:22.207Z,75.76
2023-05-19T00:11:49.234Z,75.45
2023-05-19T00:12:49.406Z,74.29
2023-05-19T00:13:52.689Z,74.70
2023-05-19T00:14:51.227Z,75.35
2023-05-19T00:15:50.975Z,75.62
2023-05-19T00:17:28.033Z,75.76
2023-05-19T00:17:51.868Z,75.97
2023-05-19T00:18:51.292Z,75.76
2023-05-19T00:20:30.859Z,76.07
2023-05-19T00:20:50.924Z,75.87
2023-05-19T00:21:50.556Z,75.56
2023-05-19T00:23:37.437Z,75.04
2023-05-19T00:24:56.194Z,74.02
2023-05-19T00:26:56.809Z,74.91
2023-05-19T00:29:56.331Z,74.08
2023-05-19T00:31:00.740Z,75.56
2023-05-19T00:32:17.361Z,75.76
2023-05-19T00:32:59.550Z,75.83
2023-05-19T00:34:08.423Z,75.97
2023-05-19T00:37:28.893Z,75.76
2023-05-19T00:38:26.441Z,75.15
2023-05-19T00:39:23.770Z,75.76
2023-05-19T00:40:56.573Z,75.66
2023-05-19T00:41:24.618Z,75.87
2023-05-19T00:42:23.397Z,75.87
2023-05-19T00:43:23.778Z,75.87
2023-05-19T00:46:56.837Z,75.87
2023-05-19T00:47:50.148Z,76.07
2023-05-19T00:48:28.154Z,75.76
2023-05-19T00:48:59.293Z,76.28
2023-05-19T00:49:58.725Z,76.28
2023-05-19T00:51:05.849Z,76.62
2023-05-19T00:52:01.141Z,76.21
2023-05-19T00:53:35.016Z,76.25
2023-05-19T00:54:34.403Z,77.85
2023-05-19T00:55:44.204Z,76.25
2023-05-19T00:56:15.888Z,77.27
2023-05-19T00:56:57.745Z,77.20
2023-05-19T00:57:57.463Z,77.72
2023-05-19T00:59:29.273Z,77.72
2023-05-19T01:00:30.618Z,77.96
2023-05-19T01:01:38.237Z,78.17
2023-05-19T01:02:03.455Z,79.71
2023-05-19T01:04:55.204Z,79.64
2023-05-19T01:05:55.395Z,79.54
2023-05-19T01:06:54.790Z,80.51
2023-05-19T01:07:54.881Z,80.71
2023-05-19T01:08:54.752Z,80.33
2023-05-19T01:09:56.947Z,80.61
2023-05-19T01:11:04.399Z,80.81
2023-05-19T01:11:58.068Z,80.85
2023-05-19T01:12:56.380Z,80.33
2023-05-19T01:13:56.473Z,80.33
2023-05-19T01:14:56.395Z,80.65
2023-05-19T01:15:56.429Z,80.79
2023-05-19T01:16:56.573Z,80.65
2023-05-19T01:18:31.188Z,80.79
2023-05-19T01:18:57.987Z,80.68
2023-05-19T01:22:04.653Z,80.65
2023-05-19T01:23:04.559Z,80.23
2023-05-19T01:24:40.249Z,81.05
2023-05-19T01:25:07.017Z,80.33
2023-05-19T01:26:06.759Z,80.33
2023-05-19T01:27:06.549Z,80.75
2023-05-19T01:28:06.008Z,80.13
2023-05-19T01:29:07.150Z,80.13
2023-05-19T01:30:07.449Z,79.72
2023-05-19T01:31:06.366Z,79.82
2023-05-19T01:32:06.914Z,79.72
2023-05-19T01:33:06.790Z,79.20
2023-05-19T01:34:05.921Z,79.61
2023-05-19T01:35:07.839Z,79.27
2023-05-19T01:36:08.635Z,79.58
2023-05-19T01:37:07.112Z,79.58
2023-05-19T01:38:05.435Z,79.06
2023-05-19T01:39:05.681Z,78.75
2023-05-19T01:40:06.006Z,79.82
2023-05-19T01:41:05.995Z,80.02
2023-05-19T01:42:05.899Z,79.10
2023-05-19T01:43:05.593Z,79.65
2023-05-19T01:44:05.698Z,79.75
2023-05-19T01:45:06.079Z,79.86
2023-05-19T01:46:05.940Z,79.96
2023-05-19T01:47:06.642Z,79.96
2023-05-19T01:48:07.775Z,80.27
2023-05-19T01:49:06.134Z,80.37
2023-05-19T01:50:08.351Z,79.96
2023-05-19T01:51:06.471Z,80.13
2023-05-19T01:52:06.858Z,79.82
2023-05-19T01:53:06.067Z,79.93
2023-05-19T01:54:06.379Z,78.93
2023-05-19T01:55:06.465Z,79.51
2023-05-19T01:56:06.639Z,78.89
2023-05-19T01:57:05.457Z,79.00
2023-05-19T01:58:05.820Z,78.69
2023-05-19T01:59:05.810Z,78.69
2023-05-19T02:00:05.354Z,79.20
2023-05-19T02:01:05.954Z,78.89
2023-05-19T02:02:05.751Z,80.06
2023-05-19T02:03:05.446Z,80.16
2023-05-19T02:04:05.670Z,80.68
2023-05-19T02:05:05.966Z,80.51
2023-05-19T02:06:05.829Z,80.93
2023-05-19T02:07:06.459Z,80.51
2023-05-19T02:08:05.571Z,80.68
2023-05-19T02:09:05.385Z,80.62
2023-05-19T02:10:05.288Z,80.44
2023-05-19T02:11:05.512Z,80.65
2023-05-19T02:12:05.191Z,80.86
2023-05-19T02:13:05.152Z,82.20
2023-05-19T02:14:05.176Z,82.34
2023-05-19T02:15:05.173Z,82.75
2023-05-19T02:16:05.367Z,83.06
2023-05-19T02:17:05.627Z,83.06
2023-05-19T02:18:06.170Z,82.40
2023-05-19T02:19:05.455Z,82.30
2023-05-19T02:20:05.501Z,82.20
2023-05-19T02:21:05.297Z,82.34
2023-05-19T02:22:05.039Z,82.14
2023-05-19T02:23:05.007Z,82.24
2023-05-19T02:24:38.713Z,82.40
2023-05-19T02:25:05.754Z,82.03
2023-05-19T02:26:05.341Z,82.34
2023-05-19T02:27:05.169Z,82.45
2023-05-19T02:28:05.220Z,82.45
2023-05-19T02:29:05.112Z,82.65
2023-05-19T02:30:05.583Z,82.86
2023-05-19T02:31:05.167Z,82.96
2023-05-19T02:32:05.016Z,83.41
2023-05-19T02:33:04.957Z,83.51
2023-05-19T02:34:04.883Z,83.72
2023-05-19T02:35:05.016Z,83.93
2023-05-19T02:36:04.893Z,83.72
2023-05-19T02:37:05.004Z,83.83
2023-05-19T02:38:04.941Z,84.07
2023-05-19T02:39:04.890Z,83.76
2023-05-19T02:40:04.958Z,84.07
2023-05-19T02:41:05.127Z,84.17
2023-05-19T02:42:04.997Z,84.07
2023-05-19T02:43:04.779Z,84.28
2023-05-19T02:44:04.799Z,83.76
2023-05-19T02:45:04.717Z,83.76
2023-05-19T02:46:04.980Z,83.97
2023-05-19T02:47:04.685Z,83.86
2023-05-19T02:48:04.817Z,84.94
2023-05-19T02:49:09.368Z,84.31
2023-05-19T02:50:04.735Z,84.42
2023-05-19T02:51:04.654Z,84.73
2023-05-19T02:52:04.717Z,85.35
2023-05-19T02:53:04.898Z,85.14
2023-05-19T02:54:04.917Z,84.83
2023-05-19T02:55:04.934Z,85.49
2023-05-19T02:56:04.788Z,85.55
2023-05-19T02:57:04.806Z,85.97
2023-05-19T02:58:04.637Z,85.55
2023-05-19T02:59:04.682Z,85.55
2023-05-19T03:00:04.790Z,85.91
2023-05-19T03:01:04.669Z,85.24
2023-05-19T03:02:04.736Z,85.35
2023-05-19T03:03:04.915Z,84.66
2023-05-19T03:04:05.179Z,85.76
2023-05-19T03:05:04.691Z,85.04
2023-05-19T03:06:04.774Z,84.77
2023-05-19T03:07:04.631Z,84.52
2023-05-19T03:08:04.602Z,84.52
2023-05-19T03:09:04.816Z,84.31
2023-05-19T03:10:04.829Z,84.52
2023-05-19T03:11:04.732Z,85.04
2023-05-19T03:12:04.988Z,84.52
2023-05-19T03:13:04.654Z,84.73
2023-05-19T03:14:04.553Z,84.97
2023-05-19T03:15:04.770Z,84.97
2023-05-19T03:16:04.645Z,85.18
2023-05-19T03:17:04.659Z,85.91
2023-05-19T03:18:04.896Z,86.15
2023-05-19T03:19:04.587Z,86.36
2023-05-19T03:20:04.410Z,85.80
2023-05-19T03:21:04.528Z,85.70
2023-05-19T03:22:04.562Z,85.80
2023-05-19T03:23:04.687Z,85.28
2023-05-19T03:24:04.404Z,85.39
2023-05-19T03:25:04.420Z,85.49
2023-05-19T03:26:04.556Z,85.04
2023-05-19T03:27:04.636Z,85.04
2023-05-19T03:28:04.678Z,84.97
2023-05-19T03:29:04.376Z,84.73
2023-05-19T03:30:06.510Z,84.31
2023-05-19T03:31:04.614Z,84.25
2023-05-19T03:32:04.885Z,84.45
2023-05-19T03:33:04.649Z,84.56
2023-05-19T03:34:04.785Z,84.56
2023-05-19T03:35:04.567Z,84.36
2023-05-19T03:36:04.268Z,84.66
2023-05-19T03:37:04.237Z,84.66
2023-05-19T03:38:04.329Z,84.87
2023-05-19T03:39:04.252Z,84.97
2023-05-19T03:40:04.264Z,85.18
2023-05-19T03:41:04.275Z,85.60
2023-05-19T03:42:04.577Z,85.28
2023-05-19T03:43:04.456Z,85.91
2023-05-19T03:44:04.909Z,85.80
2023-05-19T03:45:04.374Z,85.28
2023-05-19T03:46:04.607Z,85.60
2023-05-19T03:47:04.463Z,85.39
2023-05-19T03:48:04.415Z,85.39
2023-05-19T03:49:04.284Z,85.42
2023-05-19T03:50:04.258Z,85.18
2023-05-19T03:51:04.436Z,85.28
2023-05-19T03:52:04.355Z,85.49
2023-05-19T03:53:04.408Z,85.18
2023-05-19T03:54:04.238Z,85.39
2023-05-19T03:55:04.278Z,85.60
2023-05-19T03:56:04.232Z,85.18
2023-05-19T03:57:04.337Z,85.39
2023-05-19T03:58:04.244Z,85.35
2023-05-19T03:59:04.341Z,85.35
2023-05-19T04:00:04.214Z,85.55
2023-05-19T04:01:04.313Z,85.14
2023-05-19T04:02:04.247Z,84.21
2023-05-19T04:03:04.209Z,84.11
2023-05-19T04:04:04.350Z,84.31
2023-05-19T04:05:04.226Z,84.28
2023-05-19T04:06:04.381Z,83.97
2023-05-19T04:07:04.194Z,83.86
2023-05-19T04:08:04.167Z,82.73
2023-05-19T04:09:04.160Z,83.25
2023-05-19T04:10:04.178Z,82.62
2023-05-19T04:11:04.130Z,82.93
2023-05-19T04:12:04.198Z,82.93
2023-05-19T04:13:04.355Z,82.69
2023-05-19T04:14:03.980Z,83.04
2023-05-19T04:15:04.204Z,82.83
2023-05-19T04:16:04.141Z,82.62
2023-05-19T04:17:04.021Z,82.48
2023-05-19T04:18:03.962Z,82.83
2023-05-19T04:19:04.130Z,82.89
2023-05-19T04:20:04.102Z,83.00
2023-05-19T04:21:04.126Z,83.00
2023-05-19T04:22:04.117Z,83.51
2023-05-19T04:23:03.926Z,84.23
2023-05-19T04:24:04.001Z,84.28
2023-05-19T04:25:03.974Z,83.97
2023-05-19T04:26:03.916Z,84.07
2023-05-19T04:27:03.847Z,84.17
2023-05-19T04:28:03.986Z,83.65
2023-05-19T04:29:03.836Z,83.97
2023-05-19T04:30:04.028Z,83.45
2023-05-19T04:31:04.064Z,83.20
2023-05-19T04:32:04.131Z,83.20
2023-05-19T04:33:03.940Z,83.00
2023-05-19T04:34:04.028Z,83.00
2023-05-19T04:35:03.729Z,82.89
2023-05-19T04:36:03.964Z,83.00
2023-05-19T04:37:03.857Z,82.89
2023-05-19T04:38:03.689Z,82.89
2023-05-19T04:39:03.754Z,82.34
2023-05-19T04:40:04.023Z,82.59
2023-05-19T04:41:04.000Z,82.55
2023-05-19T04:42:03.712Z,82.03
2023-05-19T04:43:03.665Z,81.96
2023-05-19T04:44:03.737Z,82.17
2023-05-19T04:45:03.725Z,82.38
2023-05-19T04:46:03.706Z,82.38
2023-05-19T04:47:03.785Z,82.59
2023-05-19T04:48:04.074Z,82.28
2023-05-19T04:49:03.882Z,82.89
2023-05-19T04:50:03.683Z,82.89
2023-05-19T04:51:03.787Z,83.00
2023-05-19T04:52:03.611Z,83.10
2023-05-19T04:53:03.594Z,83.10
2023-05-19T04:54:03.545Z,82.75
2023-05-19T04:55:03.554Z,82.65
2023-05-19T04:56:03.735Z,82.79
2023-05-19T04:57:03.511Z,82.86
2023-05-19T04:58:03.579Z,82.96
2023-05-19T04:59:03.851Z,83.00
2023-05-19T05:00:03.688Z,83.06
2023-05-19T05:01:03.759Z,82.65
2023-05-19T05:02:03.757Z,82.92
2023-05-19T05:03:05.010Z,82.92
2023-05-19T05:04:04.138Z,83.23
2023-05-19T05:05:03.990Z,82.92
2023-05-19T05:06:03.528Z,82.92
2023-05-19T05:07:03.523Z,83.03
2023-05-19T05:08:04.124Z,83.95
2023-05-19T05:09:03.609Z,83.95
2023-05-19T05:10:03.464Z,84.06
2023-05-19T05:11:03.819Z,83.85
2023-05-19T05:12:03.524Z,83.64
2023-05-19T05:13:37.631Z,83.54
2023-05-19T05:14:04.670Z,82.98
2023-05-19T05:15:03.535Z,83.09
2023-05-19T05:16:03.282Z,82.51
2023-05-19T05:17:03.371Z,82.30
2023-05-19T05:18:03.415Z,83.33
2023-05-19T05:19:03.468Z,84.30
2023-05-19T05:20:03.186Z,84.51
2023-05-19T05:21:03.946Z,85.13
2023-05-19T05:22:03.378Z,85.54
2023-05-19T05:23:03.400Z,85.33
2023-05-19T05:24:03.441Z,85.30
2023-05-19T05:25:03.577Z,84.88
2023-05-19T05:26:03.620Z,84.88
2023-05-19T05:27:03.489Z,85.50
2023-05-19T05:28:03.342Z,85.23
2023-05-19T05:29:03.271Z,85.60
2023-05-19T05:30:03.261Z,85.33
2023-05-19T05:31:03.315Z,85.02
2023-05-19T05:32:03.484Z,85.75
2023-05-19T05:33:03.492Z,85.13
2023-05-19T05:34:03.724Z,85.71
2023-05-19T05:35:03.190Z,86.36
2023-05-19T05:36:03.220Z,85.85
2023-05-19T05:37:03.197Z,86.02
2023-05-19T05:38:03.214Z,86.05
2023-05-19T05:39:03.165Z,85.91
2023-05-19T05:40:03.102Z,85.71
2023-05-19T05:41:03.126Z,85.71
2023-05-19T05:42:03.041Z,85.87
2023-05-19T05:43:03.158Z,86.29
2023-05-19T05:44:03.299Z,86.90
2023-05-19T05:45:03.134Z,86.18
2023-05-19T05:46:03.247Z,86.18
2023-05-19T05:47:03.221Z,86.04
2023-05-19T05:48:03.220Z,85.31
2023-05-19T05:49:03.004Z,85.42
2023-05-19T05:50:03.152Z,85.22
2023-05-19T05:51:03.216Z,85.83
2023-05-19T05:52:06.311Z,85.83
2023-05-19T05:53:04.701Z,85.73
2023-05-19T05:54:03.523Z,85.83
2023-05-19T05:55:03.380Z,85.63
2023-05-19T05:56:03.239Z,85.07
2023-05-19T05:57:04.032Z,84.97
2023-05-19T05:58:03.260Z,84.66
2023-05-19T05:59:03.320Z,84.87
2023-05-19T06:00:03.140Z,84.52
2023-05-19T06:01:03.028Z,84.00
2023-05-19T06:02:03.165Z,83.80
2023-05-19T06:03:03.517Z,83.70
2023-05-19T06:04:03.186Z,83.80
2023-05-19T06:05:03.111Z,83.90
2023-05-19T06:06:03.205Z,83.90
2023-05-19T06:07:03.052Z,83.76
2023-05-19T06:08:03.510Z,83.72
2023-05-19T06:09:03.212Z,83.35
2023-05-19T06:10:02.990Z,83.00
2023-05-19T06:11:03.000Z,82.39
2023-05-19T06:12:02.949Z,82.79
2023-05-19T06:13:03.757Z,82.79
2023-05-19T06:14:02.846Z,82.59
2023-05-19T06:15:02.897Z,82.79
2023-05-19T06:16:03.205Z,82.55
2023-05-19T06:17:02.983Z,82.04
2023-05-19T06:18:02.962Z,82.24
2023-05-19T06:19:03.200Z,81.93
2023-05-19T06:20:02.782Z,82.00
2023-05-19T06:21:03.131Z,81.90
2023-05-19T06:22:02.770Z,81.86
2023-05-19T06:23:02.846Z,81.65
2023-05-19T06:24:02.961Z,81.51
2023-05-19T06:25:03.369Z,81.10
2023-05-19T06:26:03.264Z,80.45
2023-05-19T06:27:02.992Z,80.14
2023-05-19T06:28:03.000Z,80.45
2023-05-19T06:29:03.235Z,80.10
2023-05-19T06:30:03.069Z,81.02
2023-05-19T06:31:03.747Z,81.40
2023-05-19T06:32:02.838Z,80.68
2023-05-19T06:33:03.565Z,79.55
2023-05-19T06:34:03.308Z,77.87
2023-05-19T06:35:03.202Z,77.53
2023-05-19T06:36:03.006Z,77.84
2023-05-19T06:50:32.726Z,71.63
2023-05-19T06:53:10.716Z,71.59
2023-05-19T06:54:12.504Z,72.55
2023-05-19T06:55:10.417Z,72.62
2023-05-19T06:56:26.286Z,71.56
2023-05-19T06:57:54.797Z,70.92
2023-05-19T06:58:13.004Z,71.73
2023-05-19T06:59:13.178Z,71.67
2023-05-19T07:00:32.815Z,71.43
2023-05-19T07:01:26.435Z,71.22
2023-05-19T07:03:16.674Z,70.89
2023-05-19T07:04:04.769Z,68.33
2023-05-19T07:04:24.600Z,69.12
2023-05-19T07:05:23.153Z,68.51
2023-05-19T07:06:25.564Z,67.76
2023-05-19T07:07:24.579Z,67.66
2023-05-19T07:08:24.006Z,66.74
2023-05-19T07:09:26.827Z,66.61
2023-05-19T07:10:28.079Z,64.50
2023-05-19T07:11:49.397Z,64.60
2023-05-19T07:12:28.456Z,64.20
2023-05-19T07:13:38.195Z,64.47
2023-05-19T07:14:38.082Z,64.57
2023-05-19T07:15:24.240Z,64.78
2023-05-19T07:16:23.028Z,65.16
2023-05-19T07:17:23.254Z,64.26
2023-05-19T07:18:23.267Z,64.44
2023-05-19T07:19:24.220Z,62.51
2023-05-19T07:20:23.104Z,62.27
2023-05-19T07:21:23.103Z,63.59
2023-05-19T07:22:22.948Z,62.27
2023-05-19T07:23:59.979Z,60.61
2023-05-19T07:24:59.655Z,61.74
2023-05-19T07:25:25.752Z,61.91
2023-05-19T07:26:22.888Z,60.28
2023-05-19T07:27:57.216Z,60.38
2023-05-19T07:28:23.503Z,60.18
2023-05-19T07:29:55.765Z,59.84
2023-05-19T07:30:24.783Z,60.25
2023-05-19T07:31:23.691Z,60.36
2023-05-19T07:32:28.328Z,59.44
2023-05-19T07:33:24.743Z,60.22
2023-05-19T07:34:30.043Z,60.05
2023-05-19T07:35:50.289Z,57.99
2023-05-19T07:36:49.630Z,59.21
2023-05-19T07:37:24.717Z,59.44
2023-05-19T07:40:37.272Z,58.20
2023-05-19T07:41:37.629Z,58.58
2023-05-19T07:42:37.753Z,57.56
2023-05-19T07:43:37.891Z,58.58
2023-05-19T07:44:37.266Z,57.86
2023-05-19T07:45:37.722Z,57.15
2023-05-19T07:46:50.750Z,58.78
2023-05-19T07:49:10.198Z,57.23
2023-05-19T07:51:37.136Z,57.84
2023-05-19T07:52:53.879Z,57.12
2023-05-19T07:53:50.395Z,57.33
2023-05-19T07:54:38.924Z,56.11
2023-05-19T07:57:04.051Z,56.79
2023-05-19T07:58:05.748Z,55.76
2023-05-19T08:01:57.941Z,55.45
2023-05-19T08:03:07.716Z,55.32
2023-05-19T08:04:09.158Z,55.83
2023-05-19T08:05:08.451Z,55.63
2023-05-19T08:05:59.157Z,55.02
2023-05-19T08:07:25.862Z,54.71
2023-05-19T08:08:32.044Z,54.82
2023-05-19T08:09:01.093Z,54.61
2023-05-19T08:09:59.499Z,54.61
2023-05-19T08:11:33.594Z,54.92
2023-05-19T08:12:04.087Z,54.08
2023-05-19T08:13:00.163Z,54.49
2023-05-19T08:13:59.252Z,54.79
2023-05-19T08:15:34.122Z,54.79
2023-05-19T08:15:59.539Z,54.92
2023-05-19T08:16:59.159Z,55.70
2023-05-19T08:17:59.406Z,55.90
2023-05-19T08:19:31.815Z,55.37
2023-05-19T08:20:05.565Z,55.47
2023-05-19T08:20:59.069Z,54.26
2023-05-19T08:22:33.650Z,54.05
2023-05-19T08:22:59.358Z,54.46
2023-05-19T08:23:59.044Z,53.52
2023-05-19T08:24:58.821Z,54.44
2023-05-19T08:25:59.348Z,54.33
2023-05-19T08:26:58.719Z,54.13
2023-05-19T08:28:00.724Z,54.53
2023-05-19T08:30:58.121Z,52.31
2023-05-19T08:31:57.994Z,51.98
2023-05-19T08:34:26.026Z,51.68
2023-05-19T08:38:10.483Z,52.23
2023-05-19T08:39:21.179Z,50.42
2023-05-19T08:41:38.836Z,52.01
2023-05-19T08:42:54.362Z,50.32
2023-05-19T08:43:39.701Z,51.00
2023-05-19T08:45:15.305Z,51.40
2023-05-19T08:45:54.530Z,50.19
2023-05-19T08:47:11.781Z,49.38
2023-05-19T08:47:41.515Z,51.18
2023-05-19T08:48:40.451Z,49.76
2023-05-19T08:49:46.044Z,48.85
2023-05-19T08:50:40.996Z,49.36
2023-05-19T08:51:39.803Z,50.15
2023-05-19T08:52:40.444Z,48.93
2023-05-19T08:53:44.288Z,49.74
2023-05-19T08:54:41.045Z,49.44
2023-05-19T08:56:17.504Z,48.91
2023-05-19T08:56:46.795Z,47.50
2023-05-19T08:58:13.616Z,48.13
2023-05-19T08:59:20.688Z,48.33
2023-05-19T08:59:42.582Z,49.24
2023-05-19T09:00:41.181Z,49.44
2023-05-19T09:02:09.938Z,49.26
2023-05-19T09:02:54.981Z,49.36
2023-05-19T09:03:43.875Z,49.26
2023-05-19T09:04:42.765Z,50.65
2023-05-19T09:05:40.106Z,50.04
2023-05-19T09:06:40.986Z,47.62
2023-05-19T09:07:41.113Z,48.25
2023-05-19T09:08:45.535Z,47.85
2023-05-19T09:09:49.492Z,47.74
2023-05-19T09:10:41.624Z,47.54
2023-05-19T09:12:14.362Z,47.64
2023-05-19T09:12:39.656Z,48.75
2023-05-19T09:13:39.975Z,48.55
2023-05-19T09:14:43.248Z,48.55
2023-05-19T09:15:40.746Z,47.62
2023-05-19T09:16:40.958Z,47.32
2023-05-19T09:18:12.122Z,47.04
2023-05-19T09:18:44.802Z,47.82
2023-05-19T09:19:40.742Z,47.34
2023-05-19T09:21:13.185Z,46.81
2023-05-19T09:21:39.481Z,47.52
2023-05-19T09:23:13.133Z,46.41
2023-05-19T09:23:45.626Z,46.99
2023-05-19T09:25:16.686Z,46.09
2023-05-19T09:25:42.233Z,46.81
2023-05-19T09:26:39.529Z,46.41
2023-05-19T09:27:39.530Z,46.41
2023-05-19T09:28:45.015Z,46.94
2023-05-19T09:31:53.912Z,46.71
2023-05-19T09:33:01.808Z,46.81
2023-05-19T09:34:27.685Z,47.40
2023-05-19T09:34:57.775Z,47.09
2023-05-19T09:35:54.998Z,47.67
2023-05-19T09:36:56.201Z,46.09
2023-05-19T09:37:54.935Z,47.19
2023-05-19T09:39:04.590Z,46.99
2023-05-19T09:40:30.896Z,46.92
2023-05-19T09:41:09.257Z,47.12
2023-05-19T09:41:57.181Z,48.13
2023-05-19T09:43:24.377Z,46.71
2023-05-19T09:46:00.283Z,48.02
2023-05-19T09:48:56.870Z,46.71
2023-05-19T09:49:04.806Z,46.92
2023-05-19T09:50:43.756Z,47.44
2023-05-19T09:51:05.238Z,47.95
2023-05-19T09:52:36.330Z,49.33
2023-05-19T09:53:02.175Z,47.60
2023-05-19T09:54:01.579Z,47.60
2023-05-19T09:55:01.505Z,48.49
2023-05-19T09:56:33.864Z,47.05
2023-05-19T09:57:01.903Z,47.03
2023-05-19T09:58:26.161Z,47.63
2023-05-19T09:59:03.523Z,47.11
2023-05-19T10:00:01.694Z,47.39
2023-05-19T10:01:02.257Z,46.38
2023-05-19T10:02:08.942Z,45.37
2023-05-19T10:03:01.222Z,43.79
2023-05-19T10:04:08.230Z,45.39
2023-05-19T10:05:02.912Z,45.78
2023-05-19T10:06:01.507Z,46.40
2023-05-19T10:07:02.380Z,46.08
2023-05-19T10:08:02.496Z,46.15
2023-05-19T10:09:01.059Z,45.63
2023-05-19T10:10:01.403Z,45.33
2023-05-19T10:11:05.075Z,45.53
2023-05-19T10:12:03.712Z,46.23
2023-05-19T10:13:02.852Z,45.61
2023-05-19T10:14:03.575Z,45.51
2023-05-19T10:15:38.369Z,44.71
2023-05-19T10:16:03.951Z,45.43
2023-05-19T10:17:02.040Z,46.51
2023-05-19T10:18:01.275Z,46.31
2023-05-19T10:19:03.325Z,47.00
2023-05-19T10:20:01.733Z,46.49
2023-05-19T10:21:02.818Z,45.77
2023-05-19T10:22:35.940Z,45.97
2023-05-19T10:23:05.426Z,45.39
2023-05-19T10:24:01.076Z,44.46
2023-05-19T10:25:00.913Z,43.68
2023-05-19T10:26:01.839Z,44.08
2023-05-19T10:27:03.824Z,43.56
2023-05-19T10:30:05.862Z,42.33
2023-05-19T10:31:11.914Z,41.05
2023-05-19T10:32:13.362Z,40.55
2023-05-19T10:33:17.198Z,42.47
2023-05-19T10:34:41.148Z,41.77
2023-05-19T10:35:08.954Z,42.16
2023-05-19T10:36:06.546Z,42.35
2023-05-19T10:37:10.470Z,42.86
2023-05-19T10:38:08.702Z,42.97
2023-05-19T10:39:23.882Z,43.88
2023-05-19T10:40:07.444Z,44.18
2023-05-19T10:41:07.179Z,43.50
2023-05-19T10:42:06.576Z,44.40
2023-05-19T10:43:06.334Z,43.88
2023-05-19T10:44:07.764Z,44.18
2023-05-19T10:45:07.564Z,44.59
2023-05-19T10:46:07.414Z,43.28
2023-05-19T10:47:07.318Z,42.25
2023-05-19T10:48:06.395Z,42.25
2023-05-19T10:49:06.843Z,42.13
2023-05-19T10:50:41.397Z,42.74
2023-05-19T10:51:45.526Z,41.43
2023-05-19T10:52:10.943Z,42.35
2023-05-19T10:53:05.987Z,42.35
2023-05-19T10:54:06.643Z,43.16
2023-05-19T10:55:07.592Z,42.86
2023-05-19T10:56:09.246Z,43.26
2023-05-19T10:57:07.145Z,42.96
2023-05-19T10:58:06.045Z,42.27
2023-05-19T10:59:45.852Z,41.77
2023-05-19T11:00:10.742Z,42.25
2023-05-19T11:01:07.713Z,42.27
2023-05-19T11:02:06.144Z,42.25
2023-05-19T11:03:06.737Z,42.25
2023-05-19T11:04:06.702Z,41.77
2023-05-19T11:05:06.804Z,42.19
2023-05-19T11:06:08.032Z,43.56
2023-05-19T11:07:05.884Z,42.33
2023-05-19T11:08:06.330Z,41.61
2023-05-19T11:09:06.020Z,43.40
2023-05-19T11:10:39.920Z,41.67
2023-05-19T11:11:07.380Z,41.67
2023-05-19T11:12:05.959Z,39.87
2023-05-19T11:13:14.920Z,40.37
2023-05-19T11:14:09.878Z,39.17
2023-05-19T11:15:06.140Z,40.57
2023-05-19T11:16:07.656Z,40.09
2023-05-19T11:17:06.426Z,40.49
2023-05-19T11:18:40.511Z,41.71
2023-05-19T11:19:10.080Z,42.41
2023-05-19T11:20:05.898Z,42.52
2023-05-19T11:21:06.447Z,41.43
2023-05-19T11:22:08.455Z,43.04
2023-05-19T11:23:08.553Z,41.53
2023-05-19T11:24:05.829Z,40.01
2023-05-19T11:25:43.606Z,42.41
2023-05-19T11:26:06.549Z,41.69
2023-05-19T11:27:39.621Z,41.41
2023-05-19T11:28:05.922Z,40.51
2023-05-19T11:29:08.029Z,43.19
2023-05-19T11:30:06.861Z,42.49
2023-05-19T11:31:06.697Z,41.89
2023-05-19T11:32:05.851Z,41.57
2023-05-19T11:33:15.805Z,40.57
2023-05-19T11:34:33.173Z,40.07
2023-05-19T11:35:07.326Z,41.67
2023-05-19T11:36:42.082Z,42.18
2023-05-19T11:37:06.877Z,42.25
2023-05-19T11:38:05.900Z,42.46
2023-05-19T11:39:16.442Z,40.55
2023-05-19T11:40:06.631Z,40.05
2023-05-19T11:41:06.011Z,41.46
2023-05-19T11:42:32.134Z,40.87
2023-05-19T11:43:05.857Z,40.57
2023-05-19T11:44:09.388Z,41.27
2023-05-19T11:45:05.695Z,41.89
2023-05-19T11:46:06.320Z,41.41
2023-05-19T11:47:07.720Z,43.42
2023-05-19T11:48:07.079Z,42.02
2023-05-19T11:49:07.267Z,41.63
2023-05-19T11:50:06.776Z,42.21
2023-05-19T11:51:07.149Z,40.93
2023-05-19T11:52:06.099Z,40.83
2023-05-19T11:53:05.616Z,41.74
2023-05-19T11:54:05.397Z,41.71
2023-05-19T11:55:42.516Z,41.74
2023-05-19T11:56:08.050Z,42.03
2023-05-19T11:57:05.761Z,41.43
2023-05-19T11:58:07.661Z,40.43
2023-05-19T11:59:06.269Z,41.65
2023-05-19T12:00:40.610Z,41.35
2023-05-19T12:01:10.189Z,42.03
2023-05-19T12:02:08.752Z,42.96
2023-05-19T12:03:09.846Z,42.96
2023-05-19T12:04:05.577Z,42.35
2023-05-19T12:05:05.735Z,42.27
2023-05-19T12:06:07.654Z,41.97
2023-05-19T12:07:05.664Z,41.57
2023-05-19T12:08:05.264Z,41.89
2023-05-19T12:09:06.139Z,43.38
2023-05-19T12:10:05.334Z,42.27
2023-05-19T12:11:39.550Z,42.07
2023-05-19T12:12:06.054Z,42.18
2023-05-19T12:13:09.294Z,43.66
2023-05-19T12:14:05.456Z,42.25
2023-05-19T12:15:05.518Z,42.66
2023-05-19T12:16:05.194Z,42.76
2023-05-19T12:17:20.406Z,42.94
2023-05-19T12:18:06.249Z,42.24
2023-05-19T12:19:05.555Z,42.44
2023-05-19T12:20:05.385Z,41.53
2023-05-19T12:21:05.536Z,41.71
2023-05-19T12:22:06.896Z,42.03
2023-05-19T12:23:05.245Z,41.63
2023-05-19T12:24:37.119Z,41.53
2023-05-19T12:25:17.280Z,41.71
2023-05-19T12:26:06.202Z,40.11
2023-05-19T12:27:05.430Z,40.01
2023-05-19T12:28:07.851Z,42.54
2023-05-19T12:29:05.862Z,41.83
2023-05-19T12:30:16.851Z,41.53
2023-05-19T12:31:06.468Z,42.24
2023-05-19T12:32:06.560Z,41.74
2023-05-19T12:33:06.711Z,41.51
2023-05-19T12:34:06.279Z,42.32
2023-05-19T12:35:05.574Z,42.21
2023-05-19T12:36:04.985Z,41.82
2023-05-19T12:37:07.619Z,41.51
2023-05-19T12:38:05.362Z,41.41
2023-05-19T12:39:18.465Z,42.24
2023-05-19T12:40:06.084Z,43.14
2023-05-19T12:41:09.886Z,41.15
2023-05-19T12:42:05.796Z,41.67
2023-05-19T12:43:09.226Z,42.78
2023-05-19T12:44:05.188Z,42.27
2023-05-19T12:45:04.870Z,41.47
2023-05-19T12:46:06.797Z,42.27
2023-05-19T12:47:07.140Z,41.45
2023-05-19T12:48:04.864Z,41.65
2023-05-19T12:49:04.862Z,41.74
2023-05-19T12:50:04.848Z,42.11
2023-05-19T12:51:06.710Z,42.30
2023-05-19T12:52:11.885Z,42.40
2023-05-19T12:53:08.822Z,40.19
2023-05-19T12:54:05.512Z,40.79
2023-05-19T12:55:05.102Z,40.11
2023-05-19T12:56:22.621Z,41.41
2023-05-19T12:57:06.623Z,41.71
2023-05-19T12:58:07.999Z,41.31
2023-05-19T12:59:05.706Z,40.51
2023-05-19T13:00:12.009Z,40.41
2023-05-19T13:01:07.079Z,40.11
2023-05-19T13:02:06.137Z,40.21
2023-05-19T13:03:06.494Z,40.41
2023-05-19T13:04:06.470Z,40.39
2023-05-19T13:05:10.586Z,40.37
2023-05-19T13:06:04.713Z,39.85
2023-05-19T13:07:06.321Z,38.93
2023-05-19T13:08:05.049Z,37.73
2023-05-19T13:09:04.897Z,37.31
2023-05-19T13:10:04.669Z,39.29
2023-05-19T13:11:08.231Z,38.79
2023-05-19T13:12:10.479Z,39.29
2023-05-19T13:13:04.984Z,39.81
2023-05-19T13:14:05.633Z,40.11
2023-05-19T13:15:12.207Z,39.72
2023-05-19T13:16:44.123Z,39.41
2023-05-19T13:17:05.311Z,39.13
2023-05-19T13:18:04.688Z,39.23
2023-05-19T13:19:06.304Z,39.35
2023-05-19T13:20:05.611Z,40.27
2023-05-19T13:21:06.202Z,40.17
2023-05-19T13:22:05.479Z,40.05
2023-05-19T13:23:04.720Z,40.65
2023-05-19T13:24:06.331Z,41.43
2023-05-19T13:25:05.304Z,42.46
2023-05-19T13:26:06.253Z,40.85
2023-05-19T13:27:05.056Z,40.77
2023-05-19T13:28:08.850Z,40.17
2023-05-19T13:29:05.700Z,40.87
2023-05-19T13:30:08.385Z,40.39
2023-05-19T13:31:06.733Z,41.49
2023-05-19T13:32:07.350Z,40.49
2023-05-19T13:33:12.011Z,41.69
2023-05-19T13:34:05.524Z,40.11
2023-05-19T13:35:04.681Z,40.79
2023-05-19T13:36:06.539Z,42.99
2023-05-19T13:37:04.650Z,42.69
2023-05-19T13:38:04.400Z,41.57
2023-05-19T13:39:06.996Z,43.08
2023-05-19T13:40:05.126Z,42.46
2023-05-19T13:41:04.362Z,42.24
2023-05-19T13:42:04.413Z,40.01
2023-05-19T13:43:05.189Z,40.50
2023-05-19T13:44:05.417Z,38.89
2023-05-19T13:45:04.359Z,39.51
2023-05-19T13:46:10.419Z,40.30
2023-05-19T13:47:05.548Z,39.09
2023-05-19T13:48:06.644Z,40.47
2023-05-19T13:49:04.232Z,40.30